createdAt,value
2022-08-05T00:00:50.198Z,6.97
2022-08-05T00:03:17.653Z,9.50
2022-08-05T00:06:04.934Z,6.45
2022-08-05T00:08:34.727Z,17.15
2022-08-05T00:11:07.513Z,5.85
2022-08-05T00:13:47.176Z,8.10
2022-08-05T00:16:20.235Z,5.50
2022-08-05T00:19:09.536Z,7.03
2022-08-05T00:21:36.374Z,7.00
2022-08-05T00:24:09.991Z,5.50
2022-08-05T00:26:37.613Z,8.35
2022-08-05T00:29:04.248Z,5.07
2022-08-05T00:31:54.183Z,13.77
2022-08-05T00:34:53.200Z,6.50
2022-08-05T00:37:10.959Z,8.02
2022-08-05T00:39:57.325Z,10.60
2022-08-05T00:42:40.178Z,5.45
2022-08-05T00:45:08.835Z,10.13
2022-08-05T00:47:57.404Z,9.23
2022-08-05T00:50:25.894Z,6.05
2022-08-05T00:52:53.399Z,8.15
2022-08-05T00:55:22.063Z,14.65
2022-08-05T00:57:58.797Z,12.20
2022-08-05T01:00:29.937Z,10.30
2022-08-05T01:02:59.845Z,9.02
2022-08-05T01:05:30.134Z,7.60
2022-08-05T01:08:41.505Z,12.15
2022-08-05T01:10:54.710Z,7.45
2022-08-05T01:13:27.499Z,6.60
2022-08-05T01:16:20.946Z,5.30
2022-08-05T01:18:56.739Z,7.43
2022-08-05T01:21:38.395Z,7.18
2022-08-05T01:24:23.881Z,5.55
2022-08-05T01:27:19.245Z,6.22
2022-08-05T01:29:50.261Z,10.25
2022-08-05T01:32:21.486Z,8.23
2022-08-05T01:34:51.593Z,8.25
2022-08-05T01:37:24.589Z,4.65
2022-08-05T01:39:58.835Z,9.35
2022-08-05T01:42:27.087Z,5.40
2022-08-05T01:44:59.828Z,10.60
2022-08-05T01:47:39.033Z,12.98
2022-08-05T01:50:15.165Z,10.27
2022-08-05T01:52:44.029Z,7.07
2022-08-05T01:55:13.235Z,10.98
2022-08-05T01:58:29.710Z,9.93
2022-08-05T02:00:30.986Z,3.63
2022-08-05T02:03:29.216Z,6.85
2022-08-05T02:06:33.511Z,10.30
2022-08-05T02:08:57.801Z,9.80
2022-08-05T02:11:33.564Z,8.25
2022-08-05T02:14:03.826Z,10.93
2022-08-05T02:16:52.323Z,6.43
2022-08-05T02:19:35.066Z,5.80
2022-08-05T02:22:25.544Z,9.98
2022-08-05T02:24:56.630Z,10.10
2022-08-05T02:27:29.969Z,13.13
2022-08-05T02:30:13.936Z,8.88
2022-08-05T02:32:43.361Z,8.30
2022-08-05T02:35:14.603Z,9.85
2022-08-05T02:37:53.841Z,8.00
2022-08-05T02:40:22.231Z,5.13
2022-08-05T02:42:53.932Z,5.88
2022-08-05T02:45:24.129Z,6.05
2022-08-05T02:48:06.769Z,6.20
2022-08-05T02:50:44.000Z,5.65
2022-08-05T02:53:12.028Z,6.50
2022-08-05T02:55:54.834Z,6.65
2022-08-05T02:58:27.143Z,7.35
2022-08-05T03:00:56.282Z,5.05
2022-08-05T03:03:23.426Z,7.88
2022-08-05T03:06:54.000Z,4.20
2022-08-05T03:08:39.089Z,6.95
2022-08-05T03:11:56.530Z,4.75
2022-08-05T03:14:13.581Z,5.80
2022-08-05T03:16:40.911Z,4.22
2022-08-05T03:19:12.738Z,2.85
2022-08-05T03:21:48.985Z,5.15
2022-08-05T03:24:17.856Z,7.30
2022-08-05T03:26:55.248Z,3.25
2022-08-05T03:29:21.845Z,4.60
2022-08-05T03:31:57.020Z,2.70
2022-08-05T03:34:28.327Z,3.20
2022-08-05T03:36:55.419Z,2.75
2022-08-05T03:39:27.300Z,3.97
2022-08-05T03:41:56.156Z,2.63
2022-08-05T03:44:23.599Z,4.90
2022-08-05T03:46:50.464Z,5.05
2022-08-05T03:49:17.175Z,6.90
2022-08-05T03:52:37.935Z,10.70
2022-08-05T03:55:52.303Z,2.75
2022-08-05T03:57:41.590Z,3.83
2022-08-05T04:00:15.808Z,4.50
2022-08-05T04:02:57.992Z,3.30
2022-08-05T04:05:33.704Z,7.15
2022-08-05T04:08:03.033Z,9.93
2022-08-05T04:10:37.128Z,5.38
2022-08-05T04:13:05.183Z,4.07
2022-08-05T04:15:33.249Z,6.68
2022-08-05T04:18:07.352Z,5.25
2022-08-05T04:20:36.595Z,6.55
2022-08-05T04:23:03.357Z,6.43
2022-08-05T04:25:57.928Z,6.70
2022-08-05T04:28:17.743Z,9.88
2022-08-05T04:30:45.162Z,2.97
2022-08-05T04:33:12.351Z,3.50
2022-08-05T04:36:16.138Z,2.45
2022-08-05T04:38:40.023Z,4.60
2022-08-05T04:41:07.386Z,6.18
2022-08-05T04:43:36.018Z,4.00
2022-08-05T04:46:05.024Z,3.72
2022-08-05T04:48:32.200Z,6.05
2022-08-05T04:51:02.668Z,4.43
2022-08-05T04:53:38.830Z,4.15
2022-08-05T04:56:32.883Z,5.93
2022-08-05T04:58:57.075Z,3.38
2022-08-05T05:02:08.117Z,2.63
2022-08-05T05:04:11.354Z,5.15
2022-08-05T05:06:44.891Z,7.90
2022-08-05T05:09:18.334Z,5.18
2022-08-05T05:11:55.587Z,6.18
2022-08-05T05:14:27.953Z,3.97
2022-08-05T05:16:59.376Z,4.47
2022-08-05T05:19:27.320Z,6.00
2022-08-05T05:22:23.510Z,4.10
2022-08-05T05:24:58.564Z,3.28
2022-08-05T05:27:41.498Z,4.20
2022-08-05T05:30:15.539Z,6.07
2022-08-05T05:32:56.029Z,2.53
2022-08-05T05:35:23.226Z,5.88
2022-08-05T05:37:59.529Z,5.45
2022-08-05T05:40:28.115Z,7.95
2022-08-05T05:42:55.423Z,7.95
2022-08-05T05:45:22.986Z,5.43
2022-08-05T05:48:06.480Z,9.48
2022-08-05T05:50:43.871Z,5.05
2022-08-05T05:53:21.110Z,5.72
2022-08-05T05:55:52.012Z,5.57
2022-08-05T05:58:31.815Z,4.65
2022-08-05T06:01:12.702Z,5.47
2022-08-05T06:04:00.949Z,6.22
2022-08-05T06:06:28.094Z,3.05
2022-08-05T06:08:58.639Z,4.93
2022-08-05T06:11:26.005Z,7.60
2022-08-05T06:13:54.012Z,3.22
2022-08-05T06:16:30.749Z,6.75
2022-08-05T06:19:05.788Z,9.63
2022-08-05T06:21:37.020Z,10.48
2022-08-05T06:24:07.680Z,6.47
2022-08-05T06:26:38.447Z,6.15
2022-08-05T06:29:06.972Z,3.92
2022-08-05T06:31:52.014Z,2.78
2022-08-05T06:34:20.193Z,2.35
2022-08-05T06:36:56.710Z,4.05
2022-08-05T06:39:27.036Z,5.35
2022-08-05T06:41:54.443Z,4.70
2022-08-05T06:44:22.093Z,5.78
2022-08-05T06:46:50.795Z,8.43
2022-08-05T06:49:18.974Z,3.45
2022-08-05T06:51:48.198Z,5.80
2022-08-05T06:54:18.934Z,5.00
2022-08-05T06:56:55.143Z,4.78
2022-08-05T06:59:38.709Z,5.13
2022-08-05T07:02:08.810Z,2.88
2022-08-05T07:04:35.455Z,2.40
2022-08-05T07:07:03.347Z,3.28
2022-08-05T07:09:37.464Z,3.42
2022-08-05T07:12:08.146Z,3.70
2022-08-05T07:14:54.037Z,3.22
2022-08-05T07:17:58.982Z,2.40
2022-08-05T07:20:32.576Z,2.50
2022-08-05T07:22:54.959Z,3.08
2022-08-05T07:25:54.459Z,2.47
2022-08-05T07:28:11.604Z,2.92
2022-08-05T07:30:43.948Z,2.42
2022-08-05T07:33:17.385Z,3.47
2022-08-05T07:36:01.433Z,3.10
2022-08-05T07:38:34.745Z,3.95
2022-08-05T07:42:07.407Z,3.05
2022-08-05T07:44:04.917Z,3.55
2022-08-05T07:46:33.673Z,3.08
2022-08-05T07:49:05.922Z,8.30
2022-08-05T07:51:36.663Z,3.08
2022-08-05T07:54:05.375Z,4.85
2022-08-05T07:57:00.265Z,11.50
2022-08-05T07:59:23.313Z,4.65
2022-08-05T08:02:05.022Z,3.80
2022-08-05T08:04:38.042Z,5.38
2022-08-05T08:07:07.365Z,3.22
2022-08-05T08:09:35.038Z,4.22
2022-08-05T08:12:14.030Z,6.72
2022-08-05T08:14:46.853Z,5.35
2022-08-05T08:17:20.457Z,5.82
2022-08-05T08:20:21.617Z,4.68
2022-08-05T08:22:35.094Z,4.50
2022-08-05T08:25:03.348Z,3.55
2022-08-05T08:27:40.263Z,2.85
2022-08-05T08:30:29.523Z,2.83
2022-08-05T08:33:04.388Z,2.55
2022-08-05T08:35:35.167Z,2.85
2022-08-05T08:38:11.616Z,3.13
2022-08-05T08:40:50.426Z,5.00
2022-08-05T08:45:16.332Z,3.22
2022-08-05T08:46:06.442Z,3.40
2022-08-05T08:49:03.277Z,6.82
2022-08-05T08:52:03.147Z,3.05
2022-08-05T08:54:11.541Z,4.00
2022-08-05T08:56:47.390Z,6.93
2022-08-05T08:59:21.138Z,2.30
2022-08-05T09:01:57.295Z,3.72
2022-08-05T09:04:30.666Z,2.42
2022-08-05T09:06:58.298Z,2.75
2022-08-05T09:09:26.091Z,2.80
2022-08-05T09:12:13.366Z,2.95
2022-08-05T09:14:58.472Z,8.02
2022-08-05T09:17:42.969Z,2.92
2022-08-05T09:20:36.396Z,4.25
2022-08-05T09:23:18.512Z,3.40
2022-08-05T09:26:01.137Z,4.85
2022-08-05T09:28:33.181Z,2.47
2022-08-05T09:32:39.049Z,6.18
2022-08-05T09:34:01.770Z,6.18
2022-08-05T09:36:54.430Z,4.72
2022-08-05T09:39:41.187Z,2.10
2022-08-05T09:42:17.331Z,2.72
2022-08-05T09:44:56.779Z,3.78
2022-08-05T09:47:26.094Z,2.22
2022-08-05T09:50:02.153Z,1.83
2022-08-05T09:52:31.876Z,1.88
2022-08-05T09:55:57.215Z,3.75
2022-08-05T09:57:58.577Z,5.90
2022-08-05T10:00:26.381Z,6.38
2022-08-05T10:02:58.360Z,2.10
2022-08-05T10:05:28.049Z,5.80
2022-08-05T10:08:10.628Z,2.63
2022-08-05T10:10:50.221Z,2.67
2022-08-05T10:13:45.662Z,3.92
2022-08-05T10:16:37.804Z,3.58
2022-08-05T10:19:10.229Z,2.00
2022-08-05T10:21:40.727Z,2.38
2022-08-05T10:24:10.915Z,3.38
2022-08-05T10:26:52.087Z,4.47
2022-08-05T10:29:23.722Z,4.55
2022-08-05T10:32:55.861Z,2.88
2022-08-05T10:34:55.766Z,2.47
2022-08-05T10:37:40.074Z,3.60
2022-08-05T10:40:33.449Z,8.35
2022-08-05T10:43:17.585Z,3.53
2022-08-05T10:46:06.489Z,2.78
2022-08-05T10:48:58.107Z,3.20
2022-08-05T10:51:28.764Z,10.57
2022-08-05T10:53:58.574Z,3.70
2022-08-05T10:56:30.532Z,4.82
2022-08-05T10:59:06.920Z,3.70
2022-08-05T11:01:54.858Z,2.22
2022-08-05T11:04:31.790Z,3.83
2022-08-05T11:07:05.718Z,4.00
2022-08-05T11:09:51.967Z,2.40
2022-08-05T11:12:42.207Z,6.32
2022-08-05T11:15:59.089Z,4.15
2022-08-05T11:18:14.453Z,4.18
2022-08-05T11:20:45.309Z,7.63
2022-08-05T11:24:05.286Z,2.35
2022-08-05T11:26:43.395Z,4.15
2022-08-05T11:29:37.723Z,4.35
2022-08-05T11:32:23.528Z,3.97
2022-08-05T11:34:54.335Z,3.67
2022-08-05T11:38:28.240Z,4.40
2022-08-05T11:41:35.408Z,3.30
2022-08-05T11:44:07.126Z,3.58
2022-08-05T11:46:58.647Z,1.83
2022-08-05T11:49:28.107Z,1.80
2022-08-05T11:51:54.918Z,2.55
2022-08-05T11:54:33.653Z,3.30
2022-08-05T11:57:08.820Z,5.72
2022-08-05T11:59:50.626Z,2.60
2022-08-05T12:02:24.208Z,1.70
2022-08-05T12:05:00.069Z,1.95
2022-08-05T12:08:08.964Z,5.50
2022-08-05T12:10:18.667Z,2.63
2022-08-05T12:12:58.202Z,1.95
2022-08-05T12:15:38.559Z,3.28
2022-08-05T12:18:10.063Z,3.72
2022-08-05T12:20:38.988Z,3.40
2022-08-05T12:23:12.180Z,4.35
2022-08-05T12:25:56.809Z,1.98
2022-08-05T12:28:37.593Z,2.00
2022-08-05T12:31:05.083Z,2.28
2022-08-05T12:33:36.940Z,2.47
2022-08-05T12:36:08.041Z,2.05
2022-08-05T12:38:38.221Z,3.13
2022-08-05T12:41:13.305Z,2.08
2022-08-05T12:43:51.518Z,2.83
2022-08-05T12:46:29.386Z,3.28
2022-08-05T12:49:05.856Z,3.60
2022-08-05T12:52:12.471Z,3.67
2022-08-05T12:54:41.234Z,2.40
2022-08-05T12:57:14.130Z,1.77
2022-08-05T13:01:56.693Z,3.60
2022-08-05T13:02:36.047Z,1.75
2022-08-05T13:05:06.499Z,1.67
2022-08-05T13:07:59.186Z,2.80
2022-08-05T13:10:21.474Z,1.70
2022-08-05T13:12:57.108Z,5.25
2022-08-05T13:15:41.709Z,1.90
2022-08-05T13:18:20.925Z,1.73
2022-08-05T13:20:49.174Z,5.53
2022-08-05T13:23:22.617Z,1.80
2022-08-05T13:25:58.950Z,1.50
2022-08-05T13:28:27.065Z,3.28
2022-08-05T13:30:53.883Z,6.70
2022-08-05T13:34:21.751Z,1.40
2022-08-05T13:36:10.324Z,1.50
2022-08-05T13:38:42.191Z,2.30
2022-08-05T13:41:09.690Z,1.70
2022-08-05T13:43:45.618Z,2.08
2022-08-05T13:46:37.559Z,2.35
2022-08-05T13:49:11.792Z,1.95
2022-08-05T13:51:41.621Z,1.98
2022-08-05T13:54:15.141Z,1.98
2022-08-05T13:56:45.423Z,2.38
2022-08-05T13:59:24.023Z,3.05
2022-08-05T14:01:58.242Z,1.50
2022-08-05T14:04:56.154Z,1.90
2022-08-05T14:07:59.794Z,2.15
2022-08-05T14:10:27.955Z,4.50
2022-08-05T14:12:55.722Z,5.78
2022-08-05T14:16:05.835Z,2.40
2022-08-05T14:18:17.509Z,3.97
2022-08-05T14:20:48.813Z,5.88
2022-08-05T14:23:24.719Z,1.90
2022-08-05T14:25:58.398Z,1.65
2022-08-05T14:28:30.037Z,3.88
2022-08-05T14:30:58.068Z,1.90
2022-08-05T14:33:24.801Z,3.40
2022-08-05T14:35:54.857Z,7.57
2022-08-05T14:38:32.117Z,3.60
2022-08-05T14:41:05.795Z,5.68
2022-08-05T14:44:02.502Z,2.50
2022-08-05T14:46:28.547Z,2.90
2022-08-05T14:49:06.766Z,2.53
2022-08-05T14:51:38.023Z,2.63
2022-08-05T14:54:26.152Z,2.83
2022-08-05T14:56:54.616Z,2.45
2022-08-05T14:59:24.755Z,2.58
2022-08-05T15:01:53.614Z,4.65
2022-08-05T15:04:22.196Z,5.72
2022-08-05T15:06:50.526Z,2.20
2022-08-05T15:09:52.342Z,3.85
2022-08-05T15:12:09.509Z,3.80
2022-08-05T15:14:48.040Z,2.17
2022-08-05T15:17:47.097Z,2.97
2022-08-05T15:20:04.758Z,3.03
2022-08-05T15:22:31.399Z,3.33
2022-08-05T15:24:59.270Z,7.90
2022-08-05T15:27:26.111Z,3.03
2022-08-05T15:29:59.082Z,4.70
2022-08-05T15:32:27.502Z,6.13
2022-08-05T15:34:55.859Z,6.80
2022-08-05T15:38:34.338Z,4.82
2022-08-05T15:40:58.218Z,6.03
2022-08-05T15:43:01.577Z,2.53
2022-08-05T15:45:43.190Z,6.30
2022-08-05T15:48:14.076Z,2.85
2022-08-05T15:50:41.623Z,1.92
2022-08-05T15:53:10.942Z,3.25
2022-08-05T15:56:02.660Z,3.63
2022-08-05T15:58:26.731Z,5.97
2022-08-05T16:01:04.396Z,3.05
2022-08-05T16:03:41.337Z,3.35
2022-08-05T16:06:11.473Z,3.22
2022-08-05T16:08:38.845Z,3.40
2022-08-05T16:11:07.325Z,2.97
2022-08-05T16:13:35.386Z,3.00
2022-08-05T16:16:05.747Z,6.28
2022-08-05T16:18:35.359Z,3.65
2022-08-05T16:21:20.521Z,4.07
2022-08-05T16:23:54.142Z,3.17
2022-08-05T16:26:26.446Z,4.25
2022-08-05T16:28:54.402Z,3.85
2022-08-05T16:31:21.533Z,3.85
2022-08-05T16:33:48.748Z,6.63
2022-08-05T16:36:20.516Z,6.93
2022-08-05T16:38:54.940Z,5.72
2022-08-05T16:42:14.938Z,4.60
2022-08-05T16:44:10.071Z,3.97
2022-08-05T16:46:38.659Z,4.68
2022-08-05T16:49:09.225Z,3.38
2022-08-05T16:51:50.192Z,5.22
2022-08-05T16:54:24.843Z,8.18
2022-08-05T16:56:54.254Z,2.83
2022-08-05T16:59:21.043Z,3.83
2022-08-05T17:01:54.925Z,2.63
2022-08-05T17:04:27.607Z,2.80
2022-08-05T17:06:55.877Z,3.75
2022-08-05T17:09:28.570Z,1.58
2022-08-05T17:12:00.315Z,2.00
2022-08-05T17:14:36.671Z,2.00
2022-08-05T17:17:05.607Z,3.30
2022-08-05T17:19:32.452Z,1.42
2022-08-05T17:22:00.983Z,1.10
2022-08-05T17:24:40.344Z,0.93
2022-08-05T17:27:12.075Z,0.82
2022-08-05T17:29:42.919Z,1.52
2022-08-05T17:32:11.387Z,0.57
2022-08-05T17:34:43.166Z,1.98
2022-08-05T17:37:41.165Z,2.92
2022-08-05T17:39:56.452Z,0.93
2022-08-05T17:42:30.107Z,2.65
2022-08-05T17:45:17.730Z,9.98
2022-08-05T17:47:52.907Z,0.55
2022-08-05T17:50:28.392Z,3.40
2022-08-05T17:52:56.804Z,0.55
2022-08-05T17:55:27.336Z,2.05
2022-08-05T17:58:02.324Z,0.35
2022-08-05T18:00:29.797Z,1.85
2022-08-05T18:02:57.037Z,0.35
2022-08-05T18:05:28.187Z,1.23
2022-08-05T18:08:01.850Z,0.40
2022-08-05T18:10:28.677Z,0.65
2022-08-05T18:12:59.095Z,1.17
2022-08-05T18:15:34.069Z,3.40
2022-08-05T18:18:05.784Z,0.50
2022-08-05T18:20:38.102Z,0.40
2022-08-05T18:23:09.092Z,0.50
2022-08-05T18:25:38.918Z,1.17
2022-08-05T18:28:06.488Z,0.90
2022-08-05T18:30:34.122Z,0.63
2022-08-05T18:33:01.738Z,0.68
2022-08-05T18:35:59.972Z,3.95
2022-08-05T18:38:19.540Z,0.40
2022-08-05T18:41:53.539Z,1.63
2022-08-05T18:43:42.767Z,0.40
2022-08-05T18:46:15.298Z,1.05
2022-08-05T18:48:42.125Z,0.45
2022-08-05T18:52:04.053Z,1.05
2022-08-05T18:54:14.722Z,0.50
2022-08-05T18:56:51.159Z,0.57
2022-08-05T18:59:43.352Z,1.38
2022-08-05T19:02:26.884Z,0.40
2022-08-05T19:05:01.496Z,0.80
2022-08-05T19:07:42.342Z,0.88
2022-08-05T19:10:12.380Z,0.40
2022-08-05T19:12:39.251Z,1.15
2022-08-05T19:15:06.332Z,0.55
2022-08-05T19:17:59.804Z,0.80
2022-08-05T19:20:41.433Z,2.83
2022-08-05T19:23:22.393Z,0.55
2022-08-05T19:26:01.753Z,0.77
2022-08-05T19:28:30.022Z,1.15
2022-08-05T19:30:57.951Z,1.30
2022-08-05T19:33:34.044Z,0.70
2022-08-05T19:36:07.054Z,1.02
2022-08-05T19:38:36.862Z,1.00
2022-08-05T19:41:07.322Z,1.35
2022-08-05T19:44:06.729Z,1.23
2022-08-05T19:46:30.350Z,2.45
2022-08-05T19:49:03.100Z,0.80
2022-08-05T19:52:05.240Z,0.90
2022-08-05T19:54:30.946Z,0.52
2022-08-05T19:57:02.670Z,1.67
2022-08-05T19:59:55.874Z,1.05
2022-08-05T20:02:22.570Z,0.57
2022-08-05T20:04:50.141Z,1.00
2022-08-05T20:07:46.854Z,1.35
2022-08-05T20:10:11.674Z,0.55
2022-08-05T20:12:46.380Z,1.35
2022-08-05T20:15:23.329Z,0.88
2022-08-05T20:18:10.147Z,0.70
2022-08-05T20:20:51.892Z,0.63
2022-08-05T20:23:22.110Z,1.35
2022-08-05T20:25:49.187Z,0.70
2022-08-05T20:28:18.987Z,0.95
2022-08-05T20:30:45.776Z,0.93
2022-08-05T20:33:14.702Z,0.82
2022-08-05T20:35:45.345Z,0.73
2022-08-05T20:38:14.398Z,2.38
2022-08-05T20:40:50.376Z,2.15
2022-08-05T20:43:17.771Z,0.70
2022-08-05T20:46:06.870Z,2.42
2022-08-05T20:48:37.247Z,1.45
2022-08-05T20:51:07.992Z,2.63
2022-08-05T20:53:37.201Z,0.70
2022-08-05T20:56:09.733Z,0.70
2022-08-05T20:58:37.001Z,1.23
2022-08-05T21:01:04.400Z,2.17
2022-08-05T21:03:34.695Z,1.85
2022-08-05T21:06:01.997Z,0.98
2022-08-05T21:08:42.106Z,1.20
2022-08-05T21:11:12.430Z,1.13
2022-08-05T21:13:47.820Z,1.70
2022-08-05T21:16:22.784Z,4.55
2022-08-05T21:18:55.870Z,0.93
2022-08-05T21:21:26.913Z,4.15
2022-08-05T21:24:12.851Z,2.65
2022-08-05T21:26:41.471Z,1.98
2022-08-05T21:29:12.633Z,2.85
2022-08-05T21:31:43.600Z,2.20
2022-08-05T21:34:11.377Z,0.77
2022-08-05T21:36:38.717Z,1.67
2022-08-05T21:39:05.498Z,1.05
2022-08-05T21:41:35.428Z,1.38
2022-08-05T21:44:04.239Z,2.17
2022-08-05T21:46:34.637Z,1.80
2022-08-05T21:49:01.935Z,1.83
2022-08-05T21:52:22.948Z,1.48
2022-08-05T21:54:15.462Z,1.25
2022-08-05T21:56:44.744Z,3.95
2022-08-05T21:59:22.751Z,1.10
2022-08-05T22:01:54.628Z,0.90
2022-08-05T22:04:25.526Z,2.03
2022-08-05T22:06:52.629Z,3.13
2022-08-05T22:09:21.020Z,2.60
2022-08-05T22:11:48.499Z,3.05
2022-08-05T22:14:33.000Z,1.50
2022-08-05T22:17:04.062Z,2.75
2022-08-05T22:20:02.125Z,2.95
2022-08-05T22:22:27.226Z,2.33
2022-08-05T22:25:21.862Z,5.05
2022-08-05T22:28:10.540Z,1.73
2022-08-05T22:30:44.230Z,8.57
2022-08-05T22:33:56.911Z,1.73
2022-08-05T22:36:14.151Z,2.22
2022-08-05T22:38:41.540Z,1.80
2022-08-05T22:41:10.123Z,1.75
2022-08-05T22:43:38.069Z,1.70
2022-08-05T22:46:13.140Z,2.25
2022-08-05T22:48:41.306Z,1.70
2022-08-05T22:51:08.608Z,3.20
2022-08-05T22:53:42.798Z,2.85
2022-08-05T22:56:16.826Z,3.00
2022-08-05T22:58:43.789Z,1.98
2022-08-05T23:01:10.705Z,2.10
2022-08-05T23:03:58.833Z,2.40
2022-08-05T23:06:26.601Z,4.60
2022-08-05T23:08:55.772Z,1.02
2022-08-05T23:11:46.575Z,4.45
2022-08-05T23:14:16.134Z,4.13
2022-08-05T23:17:08.088Z,1.35
2022-08-05T23:19:46.602Z,1.33
2022-08-05T23:22:19.311Z,1.65
2022-08-05T23:24:54.298Z,0.80
2022-08-05T23:27:21.243Z,0.50
2022-08-05T23:29:50.618Z,0.35
2022-08-05T23:32:22.467Z,3.75
2022-08-05T23:34:49.963Z,1.88
2022-08-05T23:37:17.920Z,0.98
2022-08-05T23:39:54.287Z,1.30
2022-08-05T23:42:23.522Z,2.47
2022-08-05T23:44:55.756Z,3.22
2022-08-05T23:47:25.454Z,0.45
2022-08-05T23:49:55.588Z,0.47
2022-08-05T23:52:26.851Z,1.85
2022-08-05T23:54:57.776Z,2.58
2022-08-05T23:57:28.067Z,1.20
